Pagrindinis puslapis
METAR-TAF:

METAR-TAF

Oro uostai :

Glosteris, Anglija

platuma: 51-54N, ilguma: 002-10W, Aukštis: 29 m

Dabartinis oras

Ataskaita buvo paskelbta 44 minutes, ne 09:50 UTC
Vėjas 10 kt iš Šiaurės Rytų
Temperatūra 7°C
Drėgmė 70%
Slėgis 1034 hPa
Matomumas 10 km arba daugiau
Išsisklaidę debesys ne aukštis 2500 ft

METAR: EGBJ 310950Z 05010KT 9999 SCT025 07/02 Q1034

Laikas: 11:34 (10:34 UTC)

Prognozė

Ataskaita buvo paskelbta 2 valandos ir 36 minutes, ne 07:58 UTC
Prognozė galioja nuo 31 metu 09 UTC su 31 metu 18 UTC
Vėjas 9 kt iš Šiaurės Rytų
Matomumas 10 km arba daugiau
Mažai debesys ne aukštis 2500 ft

TAF: EGBJ 310758Z 3109/3118 05009KT 9999 FEW025

Orai ataskaitas ir orų prognozės (METAR, TAF).

turimą stotys yra geltonos ir raudonos taškus žemėlapyje.

Perkelti pele per norėdami pamatyti stoties vardą.

Tada spustelėkite, norėdami matyti oro stebėjimo ir prognozės.

Norėdami pakeisti žemėlapį: spustelėkite ant žalios mygtukų su juodo kryžiaus žemyn,; žalią mygtuką su brūkšneliu, jei norite nutolinti; arba žalių rodyklių gretimoms žemėlapius.


METAR-TAF: